createdAt,value
2018-03-26T00:00:45.905Z,89.01
2018-03-26T00:03:13.447Z,88.74
2018-03-26T00:05:40.998Z,88.91
2018-03-26T00:08:08.575Z,89.36
2018-03-26T00:10:36.183Z,89.21
2018-03-26T00:13:03.735Z,89.11
2018-03-26T00:15:31.293Z,89.23
2018-03-26T00:17:58.851Z,89.30
2018-03-26T00:20:26.439Z,89.46
2018-03-26T00:22:54.004Z,89.64
2018-03-26T00:25:21.598Z,89.78
2018-03-26T00:27:49.154Z,89.79
2018-03-26T00:30:16.712Z,89.56
2018-03-26T00:32:44.310Z,89.75
2018-03-26T00:35:11.874Z,89.75
2018-03-26T00:37:39.447Z,89.65
2018-03-26T00:40:07.008Z,89.67
2018-03-26T00:42:34.558Z,89.83
2018-03-26T00:45:02.191Z,89.69
2018-03-26T00:47:29.786Z,89.74
2018-03-26T00:49:57.415Z,89.87
2018-03-26T00:52:24.968Z,89.90
2018-03-26T00:54:52.513Z,89.68
2018-03-26T00:57:20.074Z,89.39
2018-03-26T00:59:47.623Z,89.27
2018-03-26T01:02:15.338Z,89.18
2018-03-26T01:04:43.538Z,88.23
2018-03-26T01:07:12.084Z,88.12
2018-03-26T01:09:40.311Z,88.75
2018-03-26T01:12:07.926Z,88.35
2018-03-26T01:14:35.547Z,87.70
2018-03-26T01:17:03.091Z,86.53
2018-03-26T01:19:30.688Z,85.67
2018-03-26T01:21:58.373Z,85.56
2018-03-26T01:24:25.949Z,85.13
2018-03-26T01:26:53.613Z,85.30
2018-03-26T01:29:21.934Z,85.60
2018-03-26T01:31:49.697Z,86.00
2018-03-26T01:34:17.286Z,86.12
2018-03-26T01:36:44.876Z,86.22
2018-03-26T01:39:12.687Z,85.79
2018-03-26T01:41:40.337Z,85.36
2018-03-26T01:44:08.061Z,85.50
2018-03-26T01:46:36.628Z,85.59
2018-03-26T01:49:04.270Z,85.76
2018-03-26T01:51:31.862Z,86.18
2018-03-26T01:53:59.443Z,86.35
2018-03-26T01:56:27.010Z,86.38
2018-03-26T01:58:55.706Z,86.38
2018-03-26T02:01:23.254Z,86.11
2018-03-26T02:03:51.175Z,85.90
2018-03-26T02:06:20.329Z,85.87
2018-03-26T02:08:50.854Z,85.89
2018-03-26T02:11:18.462Z,86.30
2018-03-26T02:13:45.996Z,85.90
2018-03-26T02:16:13.891Z,85.81
2018-03-26T02:18:46.559Z,86.47
2018-03-26T02:21:14.786Z,86.67
2018-03-26T02:23:42.322Z,86.73
2018-03-26T02:26:15.223Z,86.62
2018-03-26T02:28:46.489Z,86.69
2018-03-26T02:31:15.979Z,86.20
2018-03-26T02:33:43.530Z,85.75
2018-03-26T02:36:11.099Z,85.50
2018-03-26T02:38:39.726Z,85.48
2018-03-26T02:41:08.584Z,85.51
2018-03-26T02:43:36.707Z,85.58
2018-03-26T02:46:04.928Z,85.63
2018-03-26T02:48:34.116Z,85.83
2018-03-26T02:51:01.686Z,86.31
2018-03-26T02:53:29.438Z,86.65
2018-03-26T02:55:58.649Z,86.37
2018-03-26T02:58:27.501Z,85.51
2018-03-26T03:00:55.530Z,85.08
2018-03-26T03:03:23.992Z,84.88
2018-03-26T03:05:51.724Z,84.75
2018-03-26T03:08:19.298Z,84.60
2018-03-26T03:10:46.846Z,83.90
2018-03-26T03:13:14.468Z,84.05
2018-03-26T03:15:42.058Z,84.33
2018-03-26T03:18:09.794Z,84.36
2018-03-26T03:20:38.709Z,84.67
2018-03-26T03:23:06.512Z,85.02
2018-03-26T03:25:36.526Z,85.22
2018-03-26T03:28:04.941Z,85.46
2018-03-26T03:30:34.165Z,85.61
2018-03-26T03:33:01.729Z,85.48
2018-03-26T03:35:29.619Z,85.45
2018-03-26T03:37:57.194Z,85.42
2018-03-26T03:40:24.832Z,85.43
2018-03-26T03:42:52.385Z,85.34
2018-03-26T03:45:20.163Z,84.89
2018-03-26T03:47:47.736Z,84.66
2018-03-26T03:50:15.460Z,84.54
2018-03-26T03:52:43.992Z,84.31
2018-03-26T03:55:12.541Z,83.77
2018-03-26T03:57:40.144Z,84.03
2018-03-26T04:00:09.473Z,84.39
2018-03-26T04:02:37.035Z,84.67
2018-03-26T04:05:05.486Z,84.38
2018-03-26T04:07:33.098Z,84.26
2018-03-26T04:10:01.892Z,84.81
2018-03-26T04:12:29.517Z,84.80
2018-03-26T04:14:57.172Z,84.84
2018-03-26T04:17:24.803Z,84.84
2018-03-26T04:19:53.041Z,84.66
2018-03-26T04:22:20.675Z,84.46
2018-03-26T04:24:48.243Z,84.47
2018-03-26T04:27:17.335Z,84.72
2018-03-26T04:29:44.980Z,84.62
2018-03-26T04:32:12.971Z,83.83
2018-03-26T04:34:40.798Z,83.70
2018-03-26T04:37:08.665Z,84.08
2018-03-26T04:39:36.508Z,84.19
2018-03-26T04:42:04.188Z,84.16
2018-03-26T04:44:32.985Z,84.27
2018-03-26T04:47:01.565Z,84.62
2018-03-26T04:49:29.852Z,85.38
2018-03-26T04:54:29.412Z,86.05
2018-03-26T04:56:57.134Z,85.98
2018-03-26T04:59:26.748Z,85.74
2018-03-26T05:01:54.594Z,85.41
2018-03-26T05:04:22.351Z,85.52
2018-03-26T05:06:49.987Z,85.43
2018-03-26T05:09:17.677Z,85.56
2018-03-26T05:11:46.348Z,85.42
2018-03-26T05:14:14.148Z,85.53
2018-03-26T05:16:41.751Z,85.16
2018-03-26T05:19:11.106Z,85.18
2018-03-26T05:21:40.153Z,85.30
2018-03-26T05:24:08.142Z,85.75
2018-03-26T05:26:35.954Z,85.76
2018-03-26T05:29:03.790Z,85.67
2018-03-26T05:31:32.636Z,85.40
2018-03-26T05:34:00.314Z,84.99
2018-03-26T05:36:28.802Z,84.37
2018-03-26T05:38:56.366Z,84.48
2018-03-26T05:41:24.108Z,84.89
2018-03-26T05:43:51.679Z,84.77
2018-03-26T05:46:19.878Z,84.63
2018-03-26T05:48:47.515Z,84.08
2018-03-26T05:51:15.252Z,83.15
2018-03-26T05:53:43.152Z,83.00
2018-03-26T05:56:15.790Z,82.32
2018-03-26T05:58:43.410Z,81.97
2018-03-26T06:01:11.088Z,82.01
2018-03-26T06:03:39.477Z,82.12
2018-03-26T06:06:07.154Z,82.23
2018-03-26T06:08:34.703Z,81.07
2018-03-26T06:11:04.262Z,79.76
2018-03-26T06:13:34.127Z,77.93
2018-03-26T06:18:56.749Z,77.19
2018-03-26T06:21:24.664Z,76.58
2018-03-26T06:23:55.862Z,76.17
2018-03-26T06:26:25.378Z,76.93
2018-03-26T06:28:57.074Z,77.08
2018-03-26T06:31:27.624Z,77.64
2018-03-26T06:33:55.258Z,78.03
2018-03-26T06:39:32.818Z,77.21
2018-03-26T06:42:09.809Z,75.68
2018-03-26T06:44:38.120Z,73.43
2018-03-26T06:47:05.962Z,72.85
2018-03-26T06:49:33.695Z,72.21
2018-03-26T06:52:01.439Z,72.82
2018-03-26T06:54:32.918Z,72.34
2018-03-26T06:57:01.706Z,72.87
2018-03-26T06:59:29.449Z,72.51
2018-03-26T07:01:57.170Z,74.70
2018-03-26T07:04:24.915Z,75.17
2018-03-26T07:06:52.549Z,73.17
2018-03-26T07:09:20.632Z,71.97
2018-03-26T07:11:48.199Z,71.99
2018-03-26T07:14:15.773Z,71.30
2018-03-26T07:16:43.326Z,71.37
2018-03-26T07:19:10.842Z,71.05
2018-03-26T07:21:38.458Z,70.67
2018-03-26T07:24:06.043Z,71.46
2018-03-26T07:26:33.732Z,71.15
2018-03-26T07:29:01.341Z,71.87
2018-03-26T07:31:28.876Z,73.06
2018-03-26T07:33:56.418Z,73.24
2018-03-26T07:36:23.972Z,73.36
2018-03-26T07:38:51.535Z,73.45
2018-03-26T07:41:19.094Z,73.26
2018-03-26T07:43:46.629Z,71.91
2018-03-26T07:46:14.154Z,70.38
2018-03-26T07:48:41.702Z,70.21
2018-03-26T07:51:09.225Z,67.58
2018-03-26T07:53:36.747Z,66.28
2018-03-26T07:56:04.296Z,65.66
2018-03-26T07:58:31.842Z,65.81
2018-03-26T08:00:59.389Z,63.81
2018-03-26T08:03:28.129Z,66.10
2018-03-26T08:05:55.724Z,65.48
2018-03-26T08:10:51.054Z,65.41
2018-03-26T08:13:18.677Z,63.79
2018-03-26T08:15:46.272Z,65.63
2018-03-26T08:18:14.126Z,67.46
2018-03-26T08:20:41.781Z,68.72
2018-03-26T08:23:09.416Z,67.10
2018-03-26T08:25:37.053Z,64.78
2018-03-26T08:28:04.676Z,64.06
2018-03-26T08:30:32.761Z,63.88
2018-03-26T08:33:00.339Z,63.14
2018-03-26T08:35:28.758Z,64.03
2018-03-26T08:37:56.279Z,65.04
2018-03-26T08:40:23.824Z,62.91
2018-03-26T08:42:51.596Z,62.09
2018-03-26T08:45:19.179Z,63.17
2018-03-26T08:47:46.758Z,64.16
2018-03-26T08:50:14.495Z,63.48
2018-03-26T08:52:41.936Z,63.56
2018-03-26T08:55:09.535Z,61.17
2018-03-26T08:57:37.076Z,60.80
2018-03-26T09:00:04.774Z,60.83
2018-03-26T09:02:32.330Z,62.55
2018-03-26T09:04:59.852Z,61.67
2018-03-26T09:07:27.876Z,60.94
2018-03-26T09:09:55.452Z,60.49
2018-03-26T09:12:23.171Z,58.90
2018-03-26T09:14:50.752Z,58.71
2018-03-26T09:17:18.589Z,58.06
2018-03-26T09:19:46.250Z,57.93
2018-03-26T09:22:13.838Z,57.56
2018-03-26T09:24:41.372Z,57.29
2018-03-26T09:27:09.035Z,58.52
2018-03-26T09:29:36.584Z,58.26
2018-03-26T09:32:04.227Z,59.54
2018-03-26T09:34:31.925Z,59.64
2018-03-26T09:36:59.490Z,59.92
2018-03-26T09:39:27.366Z,57.93
2018-03-26T09:41:55.191Z,57.77
2018-03-26T09:44:22.813Z,58.08
2018-03-26T09:46:50.383Z,58.51
2018-03-26T09:49:18.084Z,56.42
2018-03-26T09:51:45.766Z,56.82
2018-03-26T09:54:13.343Z,55.55
2018-03-26T09:56:40.924Z,56.38
2018-03-26T09:59:08.443Z,56.88
2018-03-26T10:04:31.777Z,53.56
2018-03-26T10:07:00.038Z,52.92
2018-03-26T10:09:27.851Z,52.50
2018-03-26T10:11:59.179Z,51.56
2018-03-26T10:14:26.743Z,51.51
2018-03-26T10:16:54.838Z,50.75
2018-03-26T10:19:22.387Z,51.59
2018-03-26T10:21:49.905Z,50.95
2018-03-26T10:24:17.401Z,48.93
2018-03-26T10:26:46.032Z,49.71
2018-03-26T10:29:14.263Z,50.40
2018-03-26T10:31:42.665Z,50.58
2018-03-26T10:34:10.301Z,50.54
2018-03-26T10:36:39.689Z,48.95
2018-03-26T10:39:07.283Z,48.53
2018-03-26T10:41:34.970Z,48.78
2018-03-26T10:44:02.822Z,47.22
2018-03-26T10:46:30.411Z,48.59
2018-03-26T10:48:58.563Z,48.99
2018-03-26T10:51:26.127Z,48.70
2018-03-26T10:53:55.426Z,48.53
2018-03-26T10:56:23.158Z,48.97
2018-03-26T10:58:50.769Z,44.86
2018-03-26T11:01:18.470Z,47.75
2018-03-26T11:03:46.132Z,47.06
2018-03-26T11:06:13.780Z,48.16
2018-03-26T11:08:41.419Z,47.03
2018-03-26T11:11:08.998Z,45.58
2018-03-26T11:13:36.644Z,45.22
2018-03-26T11:16:04.364Z,44.38
2018-03-26T11:18:32.096Z,44.27
2018-03-26T11:20:59.683Z,44.74
2018-03-26T11:23:27.873Z,46.80
2018-03-26T11:25:55.931Z,45.92
2018-03-26T11:28:24.561Z,45.82
2018-03-26T11:30:52.059Z,46.84
2018-03-26T11:33:19.776Z,46.44
2018-03-26T11:35:47.384Z,46.67
2018-03-26T11:38:15.116Z,47.79
2018-03-26T11:40:42.716Z,48.39
2018-03-26T11:43:10.410Z,47.98
2018-03-26T11:45:38.776Z,50.26
2018-03-26T11:48:06.384Z,51.10
2018-03-26T11:50:33.924Z,51.08
2018-03-26T11:53:01.458Z,51.56
2018-03-26T11:55:30.302Z,53.16
2018-03-26T11:57:58.097Z,55.97
2018-03-26T12:00:25.695Z,55.97
2018-03-26T12:02:53.230Z,56.25
2018-03-26T12:05:21.035Z,58.38
2018-03-26T12:10:56.101Z,55.56
2018-03-26T12:13:24.159Z,56.52
2018-03-26T12:15:51.780Z,57.50
2018-03-26T12:18:19.380Z,57.25
2018-03-26T12:20:57.672Z,57.45
2018-03-26T12:23:37.014Z,59.35
2018-03-26T12:26:04.946Z,59.28
2018-03-26T12:28:44.409Z,59.31
2018-03-26T12:31:12.157Z,59.49
2018-03-26T12:33:51.638Z,58.82
2018-03-26T12:36:19.163Z,58.16
2018-03-26T12:38:46.708Z,58.12
2018-03-26T12:41:14.360Z,57.16
2018-03-26T12:43:42.406Z,56.20
2018-03-26T12:46:21.647Z,56.80
2018-03-26T12:48:49.200Z,57.75
2018-03-26T12:51:28.467Z,55.96
2018-03-26T12:53:56.027Z,55.32
2018-03-26T12:56:29.129Z,56.47
2018-03-26T12:58:56.734Z,57.20
2018-03-26T13:01:36.010Z,57.86
2018-03-26T13:04:03.591Z,57.54
2018-03-26T13:06:31.144Z,58.10
2018-03-26T13:08:58.692Z,58.38
2018-03-26T13:11:27.022Z,58.25
2018-03-26T13:13:54.585Z,59.18
2018-03-26T13:16:22.132Z,58.60
2018-03-26T13:18:49.686Z,58.88
2018-03-26T13:21:17.407Z,57.44
2018-03-26T13:23:45.059Z,57.23
2018-03-26T13:26:12.626Z,57.41
2018-03-26T13:28:40.161Z,52.22
2018-03-26T13:31:07.932Z,52.13
2018-03-26T13:33:35.475Z,53.15
2018-03-26T13:36:03.476Z,54.09
2018-03-26T13:38:31.044Z,52.03
2018-03-26T13:40:58.577Z,52.13
2018-03-26T13:43:27.488Z,52.68
2018-03-26T13:45:55.032Z,53.18
2018-03-26T13:48:23.836Z,53.72
2018-03-26T13:50:51.368Z,55.03
2018-03-26T13:53:19.025Z,55.82
2018-03-26T13:55:46.604Z,56.98
2018-03-26T13:58:14.321Z,57.19
2018-03-26T14:00:41.874Z,57.60
2018-03-26T14:03:09.603Z,57.63
2018-03-26T14:05:37.814Z,57.81
2018-03-26T14:08:05.574Z,57.61
2018-03-26T14:13:50.014Z,58.99
2018-03-26T14:16:29.504Z,58.96
2018-03-26T14:18:58.405Z,59.69
2018-03-26T14:21:25.899Z,58.32
2018-03-26T14:23:53.445Z,58.74
2018-03-26T14:26:20.945Z,59.35
2018-03-26T14:28:50.184Z,59.71
2018-03-26T14:31:17.866Z,60.86
2018-03-26T14:33:45.846Z,59.68
2018-03-26T14:36:17.932Z,59.27
2018-03-26T14:41:10.555Z,60.65
2018-03-26T14:43:39.127Z,60.09
2018-03-26T14:46:07.885Z,60.59
2018-03-26T14:48:35.414Z,60.48
2018-03-26T14:51:03.010Z,60.75
2018-03-26T14:53:31.219Z,60.92
2018-03-26T14:55:58.764Z,60.86
2018-03-26T14:58:26.332Z,61.41
2018-03-26T15:00:53.880Z,61.37
2018-03-26T15:03:21.515Z,60.94
2018-03-26T15:05:49.151Z,60.81
2018-03-26T15:08:16.736Z,60.95
2018-03-26T15:10:44.279Z,60.43
2018-03-26T15:13:12.129Z,60.90
2018-03-26T15:15:40.120Z,60.26
2018-03-26T15:18:08.427Z,60.65
2018-03-26T15:20:35.963Z,60.51
2018-03-26T15:23:03.510Z,61.38
2018-03-26T15:25:32.089Z,61.24
2018-03-26T15:27:59.689Z,60.44
2018-03-26T15:30:27.226Z,60.47
2018-03-26T15:32:54.772Z,60.04
2018-03-26T15:35:22.356Z,59.55
2018-03-26T15:37:49.895Z,59.62
2018-03-26T15:40:17.556Z,60.02
2018-03-26T15:42:45.123Z,59.72
2018-03-26T15:45:12.971Z,59.70
2018-03-26T15:47:40.507Z,60.00
2018-03-26T15:50:08.155Z,60.44
2018-03-26T15:52:35.680Z,60.29
2018-03-26T15:55:03.263Z,60.15
2018-03-26T15:57:30.852Z,60.39
2018-03-26T15:59:58.378Z,60.95
2018-03-26T16:02:32.295Z,60.90
2018-03-26T16:05:01.012Z,61.18
2018-03-26T16:07:33.026Z,60.88
2018-03-26T16:10:00.629Z,60.64
2018-03-26T16:12:29.114Z,61.62
2018-03-26T16:14:56.667Z,60.91
2018-03-26T16:17:24.320Z,62.23
2018-03-26T16:19:52.485Z,61.31
2018-03-26T16:22:20.028Z,60.98
2018-03-26T16:24:47.610Z,61.39
2018-03-26T16:27:15.135Z,62.40
2018-03-26T16:29:42.692Z,62.63
2018-03-26T16:32:10.317Z,63.88
2018-03-26T16:34:37.850Z,62.84
2018-03-26T16:37:05.388Z,60.36
2018-03-26T16:39:33.019Z,60.28
2018-03-26T16:42:12.560Z,59.80
2018-03-26T16:44:40.154Z,60.89
2018-03-26T16:47:07.873Z,61.99
2018-03-26T16:49:36.628Z,60.97
2018-03-26T16:52:04.174Z,60.62
2018-03-26T16:54:31.713Z,60.46
2018-03-26T16:57:00.012Z,63.10
2018-03-26T16:59:29.198Z,62.67
2018-03-26T17:01:56.756Z,67.22
2018-03-26T17:04:25.291Z,67.16
2018-03-26T17:06:52.909Z,68.39
2018-03-26T17:09:20.504Z,68.80
2018-03-26T17:11:48.032Z,68.46
2018-03-26T17:14:15.896Z,68.44
2018-03-26T17:16:43.421Z,69.79
2018-03-26T17:19:11.435Z,68.96
2018-03-26T17:21:39.004Z,69.25
2018-03-26T17:24:06.630Z,68.79
2018-03-26T17:26:34.194Z,63.77
2018-03-26T17:29:02.854Z,64.55
2018-03-26T17:31:34.777Z,61.72
2018-03-26T17:34:02.424Z,59.64
2018-03-26T17:36:29.957Z,60.23
2018-03-26T17:38:57.552Z,60.03
2018-03-26T17:41:25.190Z,61.00
2018-03-26T17:43:53.876Z,61.37
2018-03-26T17:46:21.568Z,61.38
2018-03-26T17:48:49.891Z,62.39
2018-03-26T17:51:18.194Z,64.88
2018-03-26T17:53:45.847Z,65.91
2018-03-26T17:56:13.421Z,65.76
2018-03-26T17:58:40.989Z,66.99
2018-03-26T18:01:08.777Z,67.05
2018-03-26T18:03:36.451Z,68.12
2018-03-26T18:06:04.753Z,68.44
2018-03-26T18:08:33.287Z,68.38
2018-03-26T18:11:01.732Z,69.36
2018-03-26T18:13:29.415Z,69.36
2018-03-26T18:15:57.000Z,70.18
2018-03-26T18:18:24.731Z,71.27
2018-03-26T18:20:52.271Z,71.97
2018-03-26T18:23:20.758Z,72.48
2018-03-26T18:25:49.131Z,72.59
2018-03-26T18:28:17.251Z,72.89
2018-03-26T18:30:45.468Z,72.24
2018-03-26T18:33:13.988Z,73.04
2018-03-26T18:35:42.451Z,73.74
2018-03-26T18:38:10.526Z,73.82
2018-03-26T18:40:38.620Z,74.63
2018-03-26T18:43:06.483Z,74.16
2018-03-26T18:45:34.056Z,75.80
2018-03-26T18:48:07.015Z,76.27
2018-03-26T18:50:35.061Z,76.30
2018-03-26T18:53:05.585Z,77.38
2018-03-26T18:55:33.171Z,77.64
2018-03-26T18:58:00.814Z,77.22
2018-03-26T19:00:28.364Z,76.93
2018-03-26T19:02:55.956Z,76.91
2018-03-26T19:05:23.623Z,77.52
2018-03-26T19:07:51.254Z,76.78
2018-03-26T19:10:18.854Z,76.31
2018-03-26T19:12:46.396Z,76.38
2018-03-26T19:15:14.779Z,75.48
2018-03-26T19:17:42.361Z,75.03
2018-03-26T19:20:09.922Z,75.41
2018-03-26T19:22:37.505Z,75.36
2018-03-26T19:25:05.111Z,75.37
2018-03-26T19:27:32.701Z,75.28
2018-03-26T19:30:01.187Z,75.34
2018-03-26T19:32:28.741Z,74.65
2018-03-26T19:34:56.301Z,74.41
2018-03-26T19:37:25.055Z,74.36
2018-03-26T19:39:52.623Z,74.95
2018-03-26T19:42:20.289Z,74.90
2018-03-26T19:44:47.846Z,75.08
2018-03-26T19:47:15.496Z,74.66
2018-03-26T19:49:44.447Z,74.64
2018-03-26T19:52:12.074Z,74.22
2018-03-26T19:54:39.805Z,74.54
2018-03-26T19:57:07.460Z,75.05
2018-03-26T19:59:35.142Z,75.08
2018-03-26T20:02:02.733Z,74.38
2018-03-26T20:04:30.271Z,74.54
2018-03-26T20:06:57.821Z,74.19
2018-03-26T20:09:27.155Z,74.44
2018-03-26T20:11:54.719Z,74.28
2018-03-26T20:14:22.416Z,74.87
2018-03-26T20:16:50.017Z,75.57
2018-03-26T20:19:18.304Z,76.13
2018-03-26T20:21:46.043Z,76.53
2018-03-26T20:24:13.657Z,76.39
2018-03-26T20:26:41.238Z,76.86
2018-03-26T20:29:08.892Z,75.58
2018-03-26T20:31:36.739Z,76.02
2018-03-26T20:34:04.389Z,77.39
2018-03-26T20:36:32.816Z,76.71
2018-03-26T20:39:00.404Z,78.02
2018-03-26T20:41:30.826Z,77.33
2018-03-26T20:43:59.264Z,77.66
2018-03-26T20:46:27.896Z,78.60
2018-03-26T20:48:55.433Z,78.50
2018-03-26T20:51:26.283Z,78.33
2018-03-26T20:53:55.253Z,77.95
2018-03-26T20:56:22.808Z,78.46
2018-03-26T20:58:50.373Z,78.60
2018-03-26T21:01:18.158Z,77.59
2018-03-26T21:03:45.965Z,76.98
2018-03-26T21:06:14.164Z,76.39
2018-03-26T21:08:41.736Z,76.32
2018-03-26T21:11:09.308Z,76.03
2018-03-26T21:13:37.113Z,75.97
2018-03-26T21:16:04.709Z,75.62
2018-03-26T21:18:32.277Z,74.77
2018-03-26T21:21:01.097Z,74.58
2018-03-26T21:23:29.113Z,74.30
2018-03-26T21:25:56.663Z,73.80
2018-03-26T21:28:24.253Z,73.79
2018-03-26T21:30:51.793Z,73.90
2018-03-26T21:33:19.364Z,73.72
2018-03-26T21:35:46.896Z,73.99
2018-03-26T21:38:14.500Z,74.17
2018-03-26T21:40:42.041Z,74.58
2018-03-26T21:43:14.306Z,74.52
2018-03-26T21:45:41.914Z,73.90
2018-03-26T21:48:09.544Z,73.62
2018-03-26T21:50:37.111Z,73.38
2018-03-26T21:53:04.661Z,73.40
2018-03-26T21:55:32.234Z,73.33
2018-03-26T21:57:59.823Z,73.63
2018-03-26T22:00:27.372Z,73.58
2018-03-26T22:02:54.896Z,73.88
2018-03-26T22:05:28.876Z,73.86
2018-03-26T22:07:56.772Z,74.27
2018-03-26T22:10:24.531Z,74.62
2018-03-26T22:12:52.180Z,74.56
2018-03-26T22:15:19.955Z,74.50
2018-03-26T22:17:47.520Z,74.91
2018-03-26T22:20:15.109Z,74.89
2018-03-26T22:22:42.712Z,74.31
2018-03-26T22:25:10.249Z,74.40
2018-03-26T22:27:37.792Z,74.36
2018-03-26T22:30:05.359Z,74.33
2018-03-26T22:32:32.940Z,74.33
2018-03-26T22:35:02.577Z,73.98
2018-03-26T22:37:34.329Z,74.28
2018-03-26T22:40:04.567Z,73.52
2018-03-26T22:42:32.707Z,73.40
2018-03-26T22:45:00.294Z,73.23
2018-03-26T22:47:29.043Z,73.66
2018-03-26T22:49:58.738Z,73.57
2018-03-26T22:52:29.791Z,74.97
2018-03-26T22:54:58.217Z,75.56
2018-03-26T22:57:27.910Z,74.57
2018-03-26T23:00:00.620Z,74.14
2018-03-26T23:02:28.645Z,74.54
2018-03-26T23:04:56.441Z,74.58
2018-03-26T23:07:25.396Z,75.54
2018-03-26T23:09:52.978Z,75.70
2018-03-26T23:12:20.547Z,76.81
2018-03-26T23:14:55.870Z,77.11
2018-03-26T23:17:23.453Z,76.27
2018-03-26T23:19:51.022Z,75.72
2018-03-26T23:22:30.199Z,77.08
2018-03-26T23:24:57.761Z,77.53
2018-03-26T23:27:26.115Z,78.51
2018-03-26T23:29:53.795Z,78.15
2018-03-26T23:32:21.494Z,78.96
2018-03-26T23:34:49.040Z,79.12
2018-03-26T23:37:17.385Z,79.33
2018-03-26T23:39:44.979Z,79.36
2018-03-26T23:42:12.642Z,79.70
2018-03-26T23:44:40.255Z,79.56
2018-03-26T23:47:07.847Z,79.69
2018-03-26T23:49:35.440Z,79.85
2018-03-26T23:52:02.988Z,80.27
2018-03-26T23:54:30.556Z,80.49
2018-03-26T23:56:58.128Z,80.76
2018-03-26T23:59:27.017Z,81.19
